Tuesday, January 16, 2018, 6:51 AM EST
Back to Local

KNFE, Fentress Nalf

Location: Chesapeake, VA, United States Lat: 36.7
Local Time: 6:51 AM EST (11:51 GMT) Lon: -76.133
Time Zone: US/Eastern Elev: 13 ft

Show me the last for .
Show Decoded

2018-01-16 06:03 METAR KNFE 161103Z AUTO 34007KT 3/4SM BR VV003 01/M01 A3046 RMK AO2 T00111006 =
2018-01-16 05:56 METAR KNFE 161056Z AUTO 34007KT 1SM BR VV003 02/00 A3046 RMK AO2 SLP318
                 T00170000 =
2018-01-16 05:48 METAR KNFE 161048Z AUTO 34005KT 1SM BR VV003 02/00 A3047 RMK AO2 T00170000 =
2018-01-16 04:56 METAR KNFE 160956Z AUTO 34006KT 3/4SM BR VV002 02/00 A3044 RMK AO2 SLP310
                 T00170000 =
2018-01-16 03:56 METAR KNFE 160856Z AUTO 34005KT 3/4SM BR VV002 02/00 A3044 RMK AO2 SLP310
                 T00170000 53003 =
2018-01-16 02:56 METAR KNFE 160756Z AUTO 33004KT 3/4SM BR VV003 02/00 A3044 RMK AO2 SLP310
                 T00170000 =
2018-01-16 01:56 METAR KNFE 160656Z AUTO 35005KT 3/4SM BR VV003 02/01 A3043 RMK AO2 SLP306
                 T00220006 =
2018-01-16 00:56 METAR KNFE 160556Z AUTO 34004KT 3/4SM BR VV003 02/01 A3043 RMK AO2 SLP307
                 T00220006 10022 20006 58014 =
2018-01-16 00:44 METAR KNFE 160544Z AUTO 35003KT 3/4SM BR OVC002 02/01 A3043 RMK AO2 T00220006 =
2018-01-16 00:05 METAR KNFE 160505Z AUTO 02004KT 1 3/4SM BR OVC002 02/01 A3044 RMK AO2 T00220006
                 =
2018-01-15 23:56 METAR KNFE 160456Z AUTO 02004KT 2SM BR OVC003 02/01 A3044 RMK AO2 SLP311
                 T00170006 400441022 =
2018-01-15 23:47 METAR KNFE 160447Z AUTO 02005KT 2SM BR OVC003 02/00 A3045 RMK AO2 T00170000 =
2018-01-15 23:22 METAR KNFE 160422Z AUTO 36006KT 4SM BR OVC004 02/00 A3046 RMK AO2 T00170000 =
2018-01-15 22:56 METAR KNFE 160356Z AUTO 34006KT 6SM BR OVC005 02/M01 A3047 RMK AO2 SLP319
                 T00171006 =
2018-01-15 21:56 METAR KNFE 160256Z AUTO 36005KT 9SM OVC008 02/M01 A3047 RMK AO2 SLP320 T00171011
                 51008 =
2018-01-15 21:39 METAR KNFE 160239Z AUTO 36006KT 10SM OVC009 02/M02 A3047 RMK AO2 T00171017 =
2018-01-15 20:56 METAR KNFE 160156Z AUTO 34006KT 10SM BKN010 01/M02 A3047 RMK AO2 SLP319
                 T00111022 =
2018-01-15 19:56 METAR KNFE 160056Z AUTO 33007KT 10SM CLR 01/M03 A3046 RMK AO2 SLP316 T00111028 =
2018-01-15 18:56 METAR KNFE 152356Z AUTO 34004KT 10SM CLR 01/M03 A3045 RMK AO2 SLP312 T00061028
                 10044 20006 50004 =
2018-01-15 18:33 METAR KNFE 152333Z AUTO 35005KT 10SM SCT015 01/M03 A3045 RMK AO2 T00111028 =
2018-01-15 17:56 METAR KNFE 152256Z AUTO 34007KT 10SM BKN016 BKN040 02/M03 A3047 RMK AO2 SLP318
                 T00171028 =
2018-01-15 17:20 METAR KNFE 152220Z AUTO 34009KT 10SM OVC015 02/M03 A3046 RMK AO2 T00221028 =
2018-01-15 16:56 METAR KNFE 152156Z AUTO 34006KT 10SM OVC013 02/M02 A3046 RMK AO2 SLP315
                 T00221022 =
2018-01-15 15:56 METAR KNFE 152056Z AUTO 35009KT 10SM OVC013 03/M02 A3043 RMK AO2 SLP308
                 T00281022 55001 =
2018-01-15 14:56 METAR KNFE 151956Z AUTO 34010KT 10SM OVC013 03/M03 A3042 RMK AO2 SLP304
                 T00331028 =
2018-01-15 13:56 METAR KNFE 151856Z AUTO 35013G17KT 10SM OVC012 02/M02 A3044 RMK AO2 SLP308
                 T00221022 =
2018-01-15 12:56 METAR KNFE 151756Z AUTO 35007KT 10SM OVC012 04/M02 A3044 RMK AO2 SLP309 60000
                 T00391017 10039 21006 58025 =
2018-01-15 11:56 METAR KNFE 151656Z AUTO 35012KT 10SM OVC012 02/M03 A3047 RMK AO2 SLP319
                 T00221028 =
2018-01-15 10:56 METAR KNFE 151556Z AUTO 35008KT 10SM OVC011 02/M03 A3050 RMK AO2 SLP331
                 T00171028 =
2018-01-15 09:56 METAR KNFE 151456Z AUTO 35007KT 10SM OVC011 01/M04 A3051 RMK AO2 SLP334 60000
                 T00111039 51012 =
2018-01-15 08:56 METAR KNFE 151356Z AUTO 35011KT 10SM OVC013 00/M04 A3051 RMK AO2 SLP334
                 T00001044 =
2018-01-15 07:56 METAR KNFE 151256Z AUTO 35008KT 10SM BKN014 OVC041 00/M05 A3049 RMK AO2
                 UPB16E29SNE02 SLP326 P0000 T00001050 =
2018-01-15 07:39 METAR KNFE 151239Z AUTO 34008KT 10SM BKN014 OVC045 M01/M05 A3049 RMK AO2
                 UPB16E29SNE02 P0000 T10061050 =
2018-01-15 06:56 METAR KNFE 151156Z AUTO 36009KT 7SM -SN BKN031 OVC049 M01/M05 A3048 RMK AO2
                 SLP323 P0000 60000 T10061050 10000 21017 56003 =

Support USWX by starting your Amazon purchase here.